sensor_id;sensor_type;location;lat;lon;timestamp;pressure;altitude;pressure_sealevel;temperature;humidity
69570;BME280;56781;42.292;23.146;2023-05-09T00:00:02;95704.09;;;12.57;100.00
69570;BME280;56781;42.292;23.146;2023-05-09T00:02:32;95705.97;;;12.56;100.00
69570;BME280;56781;42.292;23.146;2023-05-09T00:05:00;95726.28;;;12.71;100.00
69570;BME280;56781;42.292;23.146;2023-05-09T00:07:28;95711.53;;;12.60;100.00
69570;BME280;56781;42.292;23.146;2023-05-09T00:09:56;95694.25;;;12.52;98.87
69570;BME280;56781;42.292;23.146;2023-05-09T00:12:23;95713.63;;;12.72;97.37
69570;BME280;56781;42.292;23.146;2023-05-09T00:14:51;95715.69;;;12.75;97.61
69570;BME280;56781;42.292;23.146;2023-05-09T00:17:20;95691.97;;;12.68;96.22
69570;BME280;56781;42.292;23.146;2023-05-09T00:19:49;95689.09;;;12.64;96.53
69570;BME280;56781;42.292;23.146;2023-05-09T00:22:17;95719.63;;;12.69;97.82
69570;BME280;56781;42.292;23.146;2023-05-09T00:24:44;95726.16;;;12.54;98.42
69570;BME280;56781;42.292;23.146;2023-05-09T00:27:12;95707.75;;;12.38;97.74
69570;BME280;56781;42.292;23.146;2023-05-09T00:29:39;95703.34;;;12.42;96.96
69570;BME280;56781;42.292;23.146;2023-05-09T00:32:06;95707.28;;;12.36;96.47
69570;BME280;56781;42.292;23.146;2023-05-09T00:34:34;95700.66;;;12.42;96.05
69570;BME280;56781;42.292;23.146;2023-05-09T00:37:01;95724.09;;;12.51;95.91
69570;BME280;56781;42.292;23.146;2023-05-09T00:39:28;95703.31;;;12.34;96.50
69570;BME280;56781;42.292;23.146;2023-05-09T00:41:56;95716.66;;;12.48;95.77
69570;BME280;56781;42.292;23.146;2023-05-09T00:44:23;95706.31;;;12.32;96.45
69570;BME280;56781;42.292;23.146;2023-05-09T00:46:51;95717.56;;;12.43;96.86
69570;BME280;56781;42.292;23.146;2023-05-09T00:49:18;95723.25;;;12.41;96.36
69570;BME280;56781;42.292;23.146;2023-05-09T00:51:46;95709.28;;;12.31;96.38
69570;BME280;56781;42.292;23.146;2023-05-09T00:54:14;95713.56;;;12.32;98.69
69570;BME280;56781;42.292;23.146;2023-05-09T00:56:41;95707.84;;;12.25;98.11
69570;BME280;56781;42.292;23.146;2023-05-09T00:59:11;95698.84;;;12.07;99.54
69570;BME280;56781;42.292;23.146;2023-05-09T01:01:39;95704.59;;;12.14;99.02
69570;BME280;56781;42.292;23.146;2023-05-09T01:04:06;95706.91;;;12.29;98.10
69570;BME280;56781;42.292;23.146;2023-05-09T01:15:02;95695.81;;;12.22;99.46
69570;BME280;56781;42.292;23.146;2023-05-09T01:17:52;95695.69;;;12.05;100.00
69570;BME280;56781;42.292;23.146;2023-05-09T01:23:11;95708.38;;;12.13;100.00
69570;BME280;56781;42.292;23.146;2023-05-09T01:26:01;95706.22;;;12.01;100.00
69570;BME280;56781;42.292;23.146;2023-05-09T01:31:15;95702.69;;;11.92;100.00
69570;BME280;56781;42.292;23.146;2023-05-09T01:33:44;95690.19;;;11.87;100.00
69570;BME280;56781;42.292;23.146;2023-05-09T01:36:15;95696.28;;;12.02;100.00
69570;BME280;56781;42.292;23.146;2023-05-09T01:38:47;95689.34;;;12.01;100.00
69570;BME280;56781;42.292;23.146;2023-05-09T01:41:17;95698.63;;;11.94;100.00
69570;BME280;56781;42.292;23.146;2023-05-09T01:43:47;95719.59;;;11.92;100.00
69570;BME280;56781;42.292;23.146;2023-05-09T01:46:16;95695.56;;;11.87;100.00
69570;BME280;56781;42.292;23.146;2023-05-09T01:48:44;95682.94;;;11.88;100.00
69570;BME280;56781;42.292;23.146;2023-05-09T01:51:14;95684.72;;;11.92;100.00
69570;BME280;56781;42.292;23.146;2023-05-09T01:53:43;95695.25;;;11.89;100.00
69570;BME280;56781;42.292;23.146;2023-05-09T01:56:11;95686.00;;;11.81;100.00
69570;BME280;56781;42.292;23.146;2023-05-09T01:58:40;95692.22;;;11.68;100.00
69570;BME280;56781;42.292;23.146;2023-05-09T02:01:08;95711.59;;;11.65;100.00
69570;BME280;56781;42.292;23.146;2023-05-09T02:03:37;95707.75;;;11.43;100.00
69570;BME280;56781;42.292;23.146;2023-05-09T02:06:06;95704.00;;;11.17;100.00
69570;BME280;56781;42.292;23.146;2023-05-09T02:08:33;95725.25;;;11.27;100.00
69570;BME280;56781;42.292;23.146;2023-05-09T02:11:01;95711.53;;;11.15;100.00
69570;BME280;56781;42.292;23.146;2023-05-09T02:13:28;95720.06;;;11.17;100.00
69570;BME280;56781;42.292;23.146;2023-05-09T02:15:56;95700.13;;;10.95;100.00
69570;BME280;56781;42.292;23.146;2023-05-09T02:18:23;95718.69;;;11.05;100.00
69570;BME280;56781;42.292;23.146;2023-05-09T02:20:50;95714.44;;;11.18;100.00
69570;BME280;56781;42.292;23.146;2023-05-09T02:23:18;95714.31;;;11.23;100.00
69570;BME280;56781;42.292;23.146;2023-05-09T02:25:46;95727.59;;;11.28;100.00
69570;BME280;56781;42.292;23.146;2023-05-09T02:28:14;95718.88;;;11.23;100.00
69570;BME280;56781;42.292;23.146;2023-05-09T02:30:44;95729.69;;;11.18;100.00
69570;BME280;56781;42.292;23.146;2023-05-09T02:33:13;95738.84;;;11.03;100.00
69570;BME280;56781;42.292;23.146;2023-05-09T02:35:41;95710.84;;;10.81;100.00
69570;BME280;56781;42.292;23.146;2023-05-09T02:38:10;95720.88;;;10.90;100.00
69570;BME280;56781;42.292;23.146;2023-05-09T02:40:38;95720.44;;;10.82;100.00
69570;BME280;56781;42.292;23.146;2023-05-09T02:43:05;95727.94;;;10.99;100.00
69570;BME280;56781;42.292;23.146;2023-05-09T02:45:32;95726.63;;;10.97;100.00
69570;BME280;56781;42.292;23.146;2023-05-09T02:47:59;95734.34;;;10.84;100.00
69570;BME280;56781;42.292;23.146;2023-05-09T02:50:27;95753.00;;;10.90;100.00
69570;BME280;56781;42.292;23.146;2023-05-09T02:52:54;95736.41;;;10.74;100.00
69570;BME280;56781;42.292;23.146;2023-05-09T02:55:21;95756.66;;;10.80;100.00
69570;BME280;56781;42.292;23.146;2023-05-09T02:57:48;95754.72;;;10.67;100.00
69570;BME280;56781;42.292;23.146;2023-05-09T03:00:27;95746.22;;;10.64;100.00
69570;BME280;56781;42.292;23.146;2023-05-09T03:02:54;95754.63;;;10.58;100.00
69570;BME280;56781;42.292;23.146;2023-05-09T03:05:22;95751.31;;;10.47;100.00
69570;BME280;56781;42.292;23.146;2023-05-09T03:07:49;95763.63;;;10.48;100.00
69570;BME280;56781;42.292;23.146;2023-05-09T03:10:17;95757.06;;;10.40;100.00
69570;BME280;56781;42.292;23.146;2023-05-09T03:12:44;95764.78;;;10.42;100.00
69570;BME280;56781;42.292;23.146;2023-05-09T03:15:11;95762.22;;;10.37;100.00
69570;BME280;56781;42.292;23.146;2023-05-09T03:17:39;95758.56;;;10.47;100.00
69570;BME280;56781;42.292;23.146;2023-05-09T03:20:07;95762.53;;;10.49;100.00
69570;BME280;56781;42.292;23.146;2023-05-09T03:22:36;95775.91;;;10.49;100.00
69570;BME280;56781;42.292;23.146;2023-05-09T03:25:03;95764.94;;;10.51;100.00
69570;BME280;56781;42.292;23.146;2023-05-09T03:27:31;95783.28;;;10.57;100.00
69570;BME280;56781;42.292;23.146;2023-05-09T03:29:58;95777.91;;;10.57;100.00
69570;BME280;56781;42.292;23.146;2023-05-09T03:32:26;95777.63;;;10.59;100.00
69570;BME280;56781;42.292;23.146;2023-05-09T03:34:53;95780.53;;;10.62;100.00
69570;BME280;56781;42.292;23.146;2023-05-09T03:37:20;95773.91;;;10.41;100.00
69570;BME280;56781;42.292;23.146;2023-05-09T03:39:48;95778.06;;;10.47;100.00
69570;BME280;56781;42.292;23.146;2023-05-09T03:42:16;95780.31;;;10.59;100.00
69570;BME280;56781;42.292;23.146;2023-05-09T03:44:43;95779.75;;;10.76;100.00
69570;BME280;56781;42.292;23.146;2023-05-09T03:47:10;95791.28;;;10.90;100.00
69570;BME280;56781;42.292;23.146;2023-05-09T03:49:37;95801.63;;;10.97;100.00
69570;BME280;56781;42.292;23.146;2023-05-09T03:52:04;95799.94;;;11.01;100.00
69570;BME280;56781;42.292;23.146;2023-05-09T03:54:32;95775.22;;;11.04;100.00
69570;BME280;56781;42.292;23.146;2023-05-09T03:56:59;95783.38;;;11.13;100.00
69570;BME280;56781;42.292;23.146;2023-05-09T03:59:26;95767.69;;;11.06;100.00
69570;BME280;56781;42.292;23.146;2023-05-09T04:01:53;95781.19;;;11.15;100.00
69570;BME280;56781;42.292;23.146;2023-05-09T04:04:21;95793.31;;;11.40;100.00
69570;BME280;56781;42.292;23.146;2023-05-09T04:06:48;95783.59;;;11.44;100.00
69570;BME280;56781;42.292;23.146;2023-05-09T04:09:15;95802.66;;;11.70;100.00
69570;BME280;56781;42.292;23.146;2023-05-09T04:11:42;95792.13;;;11.73;100.00
69570;BME280;56781;42.292;23.146;2023-05-09T04:14:10;95798.06;;;11.84;100.00
69570;BME280;56781;42.292;23.146;2023-05-09T04:16:37;95793.59;;;11.93;100.00
69570;BME280;56781;42.292;23.146;2023-05-09T04:19:04;95790.22;;;11.88;100.00
69570;BME280;56781;42.292;23.146;2023-05-09T04:21:32;95797.28;;;11.97;100.00
69570;BME280;56781;42.292;23.146;2023-05-09T04:24:00;95799.53;;;12.04;100.00
69570;BME280;56781;42.292;23.146;2023-05-09T04:26:27;95792.88;;;12.02;100.00
69570;BME280;56781;42.292;23.146;2023-05-09T04:28:55;95803.50;;;12.07;100.00
69570;BME280;56781;42.292;23.146;2023-05-09T04:31:23;95791.75;;;12.16;100.00
69570;BME280;56781;42.292;23.146;2023-05-09T04:33:50;95802.56;;;12.25;100.00
69570;BME280;56781;42.292;23.146;2023-05-09T04:36:17;95795.69;;;12.33;100.00
69570;BME280;56781;42.292;23.146;2023-05-09T04:38:45;95782.31;;;12.19;100.00
69570;BME280;56781;42.292;23.146;2023-05-09T04:41:12;95783.84;;;12.34;100.00
69570;BME280;56781;42.292;23.146;2023-05-09T04:43:39;95783.28;;;12.23;100.00
69570;BME280;56781;42.292;23.146;2023-05-09T04:46:07;95777.63;;;12.25;99.85
69570;BME280;56781;42.292;23.146;2023-05-09T04:48:34;95780.31;;;12.47;99.10
69570;BME280;56781;42.292;23.146;2023-05-09T04:51:02;95773.97;;;12.66;98.46
69570;BME280;56781;42.292;23.146;2023-05-09T04:53:29;95799.75;;;12.75;97.49
69570;BME280;56781;42.292;23.146;2023-05-09T04:55:56;95800.41;;;13.03;96.26
69570;BME280;56781;42.292;23.146;2023-05-09T04:58:23;95790.34;;;13.09;94.60
69570;BME280;56781;42.292;23.146;2023-05-09T05:00:52;95783.84;;;13.10;94.90
69570;BME280;56781;42.292;23.146;2023-05-09T05:03:19;95778.03;;;13.57;92.26
69570;BME280;56781;42.292;23.146;2023-05-09T05:05:46;95787.25;;;13.64;91.27
69570;BME280;56781;42.292;23.146;2023-05-09T05:08:13;95779.31;;;13.59;90.21
69570;BME280;56781;42.292;23.146;2023-05-09T05:10:41;95790.50;;;14.10;89.76
69570;BME280;56781;42.292;23.146;2023-05-09T05:13:08;95788.13;;;14.78;84.92
69570;BME280;56781;42.292;23.146;2023-05-09T05:15:35;95781.81;;;15.59;81.15
69570;BME280;56781;42.292;23.146;2023-05-09T05:18:02;95753.31;;;15.79;78.88
69570;BME280;56781;42.292;23.146;2023-05-09T05:20:30;95776.34;;;16.27;76.59
69570;BME280;56781;42.292;23.146;2023-05-09T05:22:57;95783.53;;;16.23;76.79
69570;BME280;56781;42.292;23.146;2023-05-09T05:25:25;95780.75;;;16.11;77.58
69570;BME280;56781;42.292;23.146;2023-05-09T05:27:52;95760.72;;;16.33;76.06
69570;BME280;56781;42.292;23.146;2023-05-09T05:30:19;95771.44;;;16.96;74.74
69570;BME280;56781;42.292;23.146;2023-05-09T05:32:46;95774.75;;;16.05;76.67
69570;BME280;56781;42.292;23.146;2023-05-09T05:35:14;95770.47;;;15.83;77.26
69570;BME280;56781;42.292;23.146;2023-05-09T05:37:42;95772.97;;;16.09;76.70
69570;BME280;56781;42.292;23.146;2023-05-09T05:40:10;95785.63;;;16.80;74.26
69570;BME280;56781;42.292;23.146;2023-05-09T05:42:37;95782.34;;;16.54;75.09
69570;BME280;56781;42.292;23.146;2023-05-09T05:45:05;95777.16;;;16.61;73.78
69570;BME280;56781;42.292;23.146;2023-05-09T05:47:34;95787.16;;;17.02;72.94
69570;BME280;56781;42.292;23.146;2023-05-09T05:50:04;95764.94;;;17.09;71.11
69570;BME280;56781;42.292;23.146;2023-05-09T05:52:38;95786.13;;;16.74;72.45
69570;BME280;56781;42.292;23.146;2023-05-09T05:55:06;95782.50;;;15.86;74.44
69570;BME280;56781;42.292;23.146;2023-05-09T05:57:33;95790.78;;;16.31;74.77
69570;BME280;56781;42.292;23.146;2023-05-09T06:00:01;95780.97;;;17.02;73.06
69570;BME280;56781;42.292;23.146;2023-05-09T06:02:31;95775.81;;;16.88;70.69
69570;BME280;56781;42.292;23.146;2023-05-09T06:04:58;95776.03;;;17.28;70.33
69570;BME280;56781;42.292;23.146;2023-05-09T06:07:26;95789.34;;;17.21;69.37
69570;BME280;56781;42.292;23.146;2023-05-09T06:09:53;95774.97;;;17.09;68.99
69570;BME280;56781;42.292;23.146;2023-05-09T06:12:20;95789.72;;;16.03;75.24
69570;BME280;56781;42.292;23.146;2023-05-09T06:14:47;95773.03;;;14.94;78.62
69570;BME280;56781;42.292;23.146;2023-05-09T06:17:15;95777.25;;;15.13;78.25
69570;BME280;56781;42.292;23.146;2023-05-09T06:19:43;95767.19;;;16.40;74.24
69570;BME280;56781;42.292;23.146;2023-05-09T06:22:10;95768.75;;;16.96;72.52
69570;BME280;56781;42.292;23.146;2023-05-09T06:24:37;95783.03;;;18.15;66.18
69570;BME280;56781;42.292;23.146;2023-05-09T06:27:04;95765.03;;;18.76;64.84
69570;BME280;56781;42.292;23.146;2023-05-09T06:29:32;95780.84;;;18.21;66.56
69570;BME280;56781;42.292;23.146;2023-05-09T06:31:59;95785.97;;;18.51;66.79
69570;BME280;56781;42.292;23.146;2023-05-09T06:34:26;95764.03;;;18.28;65.92
69570;BME280;56781;42.292;23.146;2023-05-09T06:36:53;95790.97;;;18.89;64.91
69570;BME280;56781;42.292;23.146;2023-05-09T06:39:20;95792.28;;;17.53;67.55
69570;BME280;56781;42.292;23.146;2023-05-09T06:41:47;95770.81;;;17.23;68.78
69570;BME280;56781;42.292;23.146;2023-05-09T06:44:15;95771.97;;;17.22;67.56
69570;BME280;56781;42.292;23.146;2023-05-09T06:46:42;95788.97;;;17.11;69.45
69570;BME280;56781;42.292;23.146;2023-05-09T06:49:09;95780.97;;;17.02;68.63
69570;BME280;56781;42.292;23.146;2023-05-09T06:51:36;95769.50;;;16.30;70.81
69570;BME280;56781;42.292;23.146;2023-05-09T06:54:04;95781.97;;;17.10;69.67
69570;BME280;56781;42.292;23.146;2023-05-09T06:56:31;95763.75;;;17.19;68.73
69570;BME280;56781;42.292;23.146;2023-05-09T06:58:58;95764.22;;;17.82;67.37
69570;BME280;56781;42.292;23.146;2023-05-09T07:01:25;95787.56;;;17.62;67.23
69570;BME280;56781;42.292;23.146;2023-05-09T07:03:52;95771.81;;;18.29;67.11
69570;BME280;56781;42.292;23.146;2023-05-09T07:06:20;95769.66;;;17.82;68.22
69570;BME280;56781;42.292;23.146;2023-05-09T07:08:47;95763.97;;;18.12;66.25
69570;BME280;56781;42.292;23.146;2023-05-09T07:11:14;95776.66;;;17.83;66.72
69570;BME280;56781;42.292;23.146;2023-05-09T07:13:42;95758.03;;;17.82;66.42
69570;BME280;56781;42.292;23.146;2023-05-09T07:16:09;95762.19;;;18.44;65.43
69570;BME280;56781;42.292;23.146;2023-05-09T07:18:36;95767.84;;;18.39;65.63
69570;BME280;56781;42.292;23.146;2023-05-09T07:21:03;95759.69;;;18.67;64.98
69570;BME280;56781;42.292;23.146;2023-05-09T07:23:30;95772.13;;;18.40;66.19
69570;BME280;56781;42.292;23.146;2023-05-09T07:25:58;95751.63;;;18.55;66.20
69570;BME280;56781;42.292;23.146;2023-05-09T07:28:25;95748.63;;;19.32;64.66
69570;BME280;56781;42.292;23.146;2023-05-09T07:30:55;95754.88;;;18.89;65.02
69570;BME280;56781;42.292;23.146;2023-05-09T07:33:23;95781.78;;;18.25;65.85
69570;BME280;56781;42.292;23.146;2023-05-09T07:35:50;95763.53;;;17.36;69.88
69570;BME280;56781;42.292;23.146;2023-05-09T07:38:18;95765.44;;;17.36;68.66
69570;BME280;56781;42.292;23.146;2023-05-09T07:40:45;95749.31;;;17.27;68.45
69570;BME280;56781;42.292;23.146;2023-05-09T07:43:13;95761.81;;;17.32;70.87
69570;BME280;56781;42.292;23.146;2023-05-09T07:45:40;95733.22;;;16.52;70.63
69570;BME280;56781;42.292;23.146;2023-05-09T07:48:07;95756.50;;;16.44;70.39
69570;BME280;56781;42.292;23.146;2023-05-09T07:50:35;95758.22;;;16.49;71.08
69570;BME280;56781;42.292;23.146;2023-05-09T07:53:02;95748.69;;;16.63;71.26
69570;BME280;56781;42.292;23.146;2023-05-09T07:55:29;95761.84;;;17.68;68.00
69570;BME280;56781;42.292;23.146;2023-05-09T07:57:56;95751.31;;;17.18;69.98
69570;BME280;56781;42.292;23.146;2023-05-09T08:00:24;95751.25;;;17.51;67.86
69570;BME280;56781;42.292;23.146;2023-05-09T08:02:51;95777.72;;;17.21;70.16
69570;BME280;56781;42.292;23.146;2023-05-09T08:05:19;95761.16;;;16.77;71.29
69570;BME280;56781;42.292;23.146;2023-05-09T08:07:46;95752.72;;;16.78;70.18
69570;BME280;56781;42.292;23.146;2023-05-09T08:10:13;95761.81;;;17.19;68.98
69570;BME280;56781;42.292;23.146;2023-05-09T08:12:40;95733.84;;;17.77;67.87
69570;BME280;56781;42.292;23.146;2023-05-09T08:15:08;95750.66;;;17.33;68.97
69570;BME280;56781;42.292;23.146;2023-05-09T08:17:35;95760.75;;;16.66;70.11
69570;BME280;56781;42.292;23.146;2023-05-09T08:20:03;95751.94;;;16.57;69.96
69570;BME280;56781;42.292;23.146;2023-05-09T08:22:31;95773.50;;;16.99;72.33
69570;BME280;56781;42.292;23.146;2023-05-09T08:24:58;95778.13;;;16.23;71.64
69570;BME280;56781;42.292;23.146;2023-05-09T08:27:25;95757.28;;;16.45;71.33
69570;BME280;56781;42.292;23.146;2023-05-09T08:29:53;95774.72;;;17.01;73.23
69570;BME280;56781;42.292;23.146;2023-05-09T08:32:20;95772.94;;;16.72;72.96
69570;BME280;56781;42.292;23.146;2023-05-09T08:34:47;95771.59;;;16.24;72.19
69570;BME280;56781;42.292;23.146;2023-05-09T08:37:14;95783.97;;;16.25;73.62
69570;BME280;56781;42.292;23.146;2023-05-09T08:39:42;95761.78;;;16.20;73.04
69570;BME280;56781;42.292;23.146;2023-05-09T08:42:09;95763.91;;;16.35;73.00
69570;BME280;56781;42.292;23.146;2023-05-09T08:44:36;95781.88;;;16.52;73.56
69570;BME280;56781;42.292;23.146;2023-05-09T08:47:04;95784.56;;;16.52;72.92
69570;BME280;56781;42.292;23.146;2023-05-09T08:49:31;95760.56;;;15.87;74.58
69570;BME280;56781;42.292;23.146;2023-05-09T08:52:00;95777.19;;;15.98;74.49
69570;BME280;56781;42.292;23.146;2023-05-09T08:54:27;95780.03;;;16.23;74.30
69570;BME280;56781;42.292;23.146;2023-05-09T08:56:55;95776.66;;;16.47;72.48
69570;BME280;56781;42.292;23.146;2023-05-09T08:59:23;95767.97;;;16.41;72.46
69570;BME280;56781;42.292;23.146;2023-05-09T09:01:52;95770.31;;;16.63;71.70
69570;BME280;56781;42.292;23.146;2023-05-09T09:04:21;95789.97;;;16.52;70.21
69570;BME280;56781;42.292;23.146;2023-05-09T09:06:49;95765.63;;;16.39;71.34
69570;BME280;56781;42.292;23.146;2023-05-09T09:09:18;95769.31;;;16.68;72.03
69570;BME280;56781;42.292;23.146;2023-05-09T09:11:47;95792.00;;;16.55;72.19
69570;BME280;56781;42.292;23.146;2023-05-09T09:14:23;95787.63;;;17.17;72.24
69570;BME280;56781;42.292;23.146;2023-05-09T09:16:54;95785.31;;;17.52;71.48
69570;BME280;56781;42.292;23.146;2023-05-09T09:19:29;95787.09;;;17.60;70.44
69570;BME280;56781;42.292;23.146;2023-05-09T09:21:58;95766.16;;;16.66;70.50
69570;BME280;56781;42.292;23.146;2023-05-09T09:24:26;95773.09;;;16.55;71.87
69570;BME280;56781;42.292;23.146;2023-05-09T09:26:53;95783.91;;;16.55;72.62
69570;BME280;56781;42.292;23.146;2023-05-09T09:29:21;95757.75;;;16.26;72.25
69570;BME280;56781;42.292;23.146;2023-05-09T09:31:52;95747.88;;;16.09;73.63
69570;BME280;56781;42.292;23.146;2023-05-09T09:34:21;95761.00;;;16.19;72.12
69570;BME280;56781;42.292;23.146;2023-05-09T09:36:49;95732.38;;;15.76;72.89
69570;BME280;56781;42.292;23.146;2023-05-09T09:39:16;95777.06;;;16.15;72.56
69570;BME280;56781;42.292;23.146;2023-05-09T09:41:44;95757.50;;;15.98;73.47
69570;BME280;56781;42.292;23.146;2023-05-09T09:44:14;95750.44;;;15.84;74.28
69570;BME280;56781;42.292;23.146;2023-05-09T09:46:43;95745.56;;;15.99;74.90
69570;BME280;56781;42.292;23.146;2023-05-09T09:49:11;95761.03;;;15.60;73.49
69570;BME280;56781;42.292;23.146;2023-05-09T09:51:39;95735.16;;;15.88;72.70
69570;BME280;56781;42.292;23.146;2023-05-09T09:54:08;95748.72;;;16.01;74.43
69570;BME280;56781;42.292;23.146;2023-05-09T09:56:50;95747.69;;;16.14;73.57
69570;BME280;56781;42.292;23.146;2023-05-09T09:59:22;95740.94;;;16.20;73.06
69570;BME280;56781;42.292;23.146;2023-05-09T10:02:04;95764.94;;;16.22;73.07
69570;BME280;56781;42.292;23.146;2023-05-09T10:04:36;95742.28;;;16.35;72.64
69570;BME280;56781;42.292;23.146;2023-05-09T10:07:06;95742.25;;;16.56;73.68
69570;BME280;56781;42.292;23.146;2023-05-09T10:09:35;95740.25;;;16.65;71.83
69570;BME280;56781;42.292;23.146;2023-05-09T10:12:05;95736.59;;;16.49;71.67
69570;BME280;56781;42.292;23.146;2023-05-09T10:14:36;95735.03;;;16.48;72.22
69570;BME280;56781;42.292;23.146;2023-05-09T10:17:04;95731.88;;;16.58;71.99
69570;BME280;56781;42.292;23.146;2023-05-09T10:19:32;95722.41;;;16.85;70.38
69570;BME280;56781;42.292;23.146;2023-05-09T10:22:04;95735.03;;;16.60;71.27
69570;BME280;56781;42.292;23.146;2023-05-09T10:24:39;95723.81;;;16.70;71.07
69570;BME280;56781;42.292;23.146;2023-05-09T10:27:10;95726.16;;;16.59;70.02
69570;BME280;56781;42.292;23.146;2023-05-09T10:29:44;95713.22;;;16.65;67.86
69570;BME280;56781;42.292;23.146;2023-05-09T10:32:36;95715.16;;;16.31;71.87
69570;BME280;56781;42.292;23.146;2023-05-09T10:35:06;95729.63;;;16.48;71.81
69570;BME280;56781;42.292;23.146;2023-05-09T10:37:34;95735.91;;;16.52;71.32
69570;BME280;56781;42.292;23.146;2023-05-09T10:40:03;95712.63;;;16.26;71.60
69570;BME280;56781;42.292;23.146;2023-05-09T10:42:31;95735.03;;;16.27;73.00
69570;BME280;56781;42.292;23.146;2023-05-09T10:44:58;95725.09;;;16.52;73.47
69570;BME280;56781;42.292;23.146;2023-05-09T10:47:26;95717.09;;;16.22;72.38
69570;BME280;56781;42.292;23.146;2023-05-09T10:49:55;95714.59;;;16.17;72.05
69570;BME280;56781;42.292;23.146;2023-05-09T10:52:23;95739.97;;;16.04;72.03
69570;BME280;56781;42.292;23.146;2023-05-09T10:55:03;95737.47;;;15.78;72.82
69570;BME280;56781;42.292;23.146;2023-05-09T10:57:31;95731.63;;;15.37;73.74
69570;BME280;56781;42.292;23.146;2023-05-09T10:59:58;95727.25;;;15.54;73.64
69570;BME280;56781;42.292;23.146;2023-05-09T11:02:26;95727.25;;;15.24;75.25
69570;BME280;56781;42.292;23.146;2023-05-09T11:05:17;95734.44;;;15.11;75.04
69570;BME280;56781;42.292;23.146;2023-05-09T11:07:46;95738.81;;;15.24;74.57
69570;BME280;56781;42.292;23.146;2023-05-09T11:10:15;95723.28;;;14.83;74.91
69570;BME280;56781;42.292;23.146;2023-05-09T11:12:57;95746.31;;;15.19;74.96
69570;BME280;56781;42.292;23.146;2023-05-09T11:15:25;95720.63;;;15.13;74.89
69570;BME280;56781;42.292;23.146;2023-05-09T11:18:06;95724.72;;;15.19;75.22
69570;BME280;56781;42.292;23.146;2023-05-09T11:20:34;95727.09;;;15.20;75.56
69570;BME280;56781;42.292;23.146;2023-05-09T11:23:05;95727.69;;;14.96;74.49
69570;BME280;56781;42.292;23.146;2023-05-09T11:25:34;95732.72;;;14.98;75.47
69570;BME280;56781;42.292;23.146;2023-05-09T11:28:02;95744.50;;;14.93;76.65
69570;BME280;56781;42.292;23.146;2023-05-09T11:30:39;95738.94;;;14.98;77.11
69570;BME280;56781;42.292;23.146;2023-05-09T11:33:23;95736.66;;;14.36;77.24
69570;BME280;56781;42.292;23.146;2023-05-09T11:38:48;95727.94;;;14.13;78.90
69570;BME280;56781;42.292;23.146;2023-05-09T11:41:26;95761.03;;;14.48;79.12
69570;BME280;56781;42.292;23.146;2023-05-09T11:43:53;95763.88;;;14.43;79.34
69570;BME280;56781;42.292;23.146;2023-05-09T11:46:22;95753.75;;;14.40;80.86
69570;BME280;56781;42.292;23.146;2023-05-09T11:48:49;95754.53;;;14.32;80.73
69570;BME280;56781;42.292;23.146;2023-05-09T11:51:17;95742.19;;;14.31;81.16
69570;BME280;56781;42.292;23.146;2023-05-09T11:53:48;95739.81;;;14.29;80.26
69570;BME280;56781;42.292;23.146;2023-05-09T11:56:16;95749.94;;;14.24;82.61
69570;BME280;56781;42.292;23.146;2023-05-09T11:58:43;95741.06;;;14.32;82.15
69570;BME280;56781;42.292;23.146;2023-05-09T12:01:12;95762.28;;;13.90;82.91
69570;BME280;56781;42.292;23.146;2023-05-09T12:03:43;95738.66;;;13.61;84.23
69570;BME280;56781;42.292;23.146;2023-05-09T12:06:15;95750.78;;;13.41;84.24
69570;BME280;56781;42.292;23.146;2023-05-09T12:08:44;95763.03;;;13.73;84.04
69570;BME280;56781;42.292;23.146;2023-05-09T12:11:12;95750.22;;;13.61;84.05
69570;BME280;56781;42.292;23.146;2023-05-09T12:13:45;95757.28;;;13.48;82.56
69570;BME280;56781;42.292;23.146;2023-05-09T12:16:13;95751.41;;;13.38;84.75
69570;BME280;56781;42.292;23.146;2023-05-09T12:18:48;95762.72;;;13.66;84.52
69570;BME280;56781;42.292;23.146;2023-05-09T12:21:17;95753.09;;;13.73;84.27
69570;BME280;56781;42.292;23.146;2023-05-09T12:23:47;95746.50;;;13.40;84.62
69570;BME280;56781;42.292;23.146;2023-05-09T12:26:17;95757.97;;;13.23;87.77
69570;BME280;56781;42.292;23.146;2023-05-09T12:28:46;95738.84;;;12.84;88.17
69570;BME280;56781;42.292;23.146;2023-05-09T12:31:15;95739.31;;;12.86;89.08
69570;BME280;56781;42.292;23.146;2023-05-09T12:33:43;95751.53;;;12.70;89.93
69570;BME280;56781;42.292;23.146;2023-05-09T12:36:11;95735.66;;;12.51;90.66
69570;BME280;56781;42.292;23.146;2023-05-09T12:38:39;95760.41;;;12.71;90.70
69570;BME280;56781;42.292;23.146;2023-05-09T12:41:08;95733.75;;;12.52;91.58
69570;BME280;56781;42.292;23.146;2023-05-09T12:43:55;95747.91;;;12.66;90.61
69570;BME280;56781;42.292;23.146;2023-05-09T12:46:23;95737.09;;;12.57;91.96
69570;BME280;56781;42.292;23.146;2023-05-09T12:48:50;95743.63;;;12.42;91.97
69570;BME280;56781;42.292;23.146;2023-05-09T12:51:19;95748.13;;;12.56;94.88
69570;BME280;56781;42.292;23.146;2023-05-09T12:53:47;95733.34;;;12.67;95.51
69570;BME280;56781;42.292;23.146;2023-05-09T12:56:16;95760.72;;;12.69;95.81
69570;BME280;56781;42.292;23.146;2023-05-09T12:58:48;95728.38;;;12.29;97.75
69570;BME280;56781;42.292;23.146;2023-05-09T13:01:20;95712.34;;;12.15;95.67
69570;BME280;56781;42.292;23.146;2023-05-09T13:03:52;95734.13;;;12.14;95.37
69570;BME280;56781;42.292;23.146;2023-05-09T13:06:26;95737.78;;;12.18;96.00
69570;BME280;56781;42.292;23.146;2023-05-09T13:08:57;95741.06;;;12.15;94.93
69570;BME280;56781;42.292;23.146;2023-05-09T13:11:26;95755.81;;;12.26;93.40